sensor_id;sensor_type;location;lat;lon;timestamp;P1;durP1;ratioP1;P2;durP2;ratioP2
54037;SDS011;39954;48.844;9.726;2023-11-18T00:00:49;95.90;;;23.52;;
54037;SDS011;39954;48.844;9.726;2023-11-18T00:01:52;109.25;;;24.52;;
54037;SDS011;39954;48.844;9.726;2023-11-18T00:03:00;93.93;;;23.08;;
54037;SDS011;39954;48.844;9.726;2023-11-18T00:04:04;87.85;;;23.85;;
54037;SDS011;39954;48.844;9.726;2023-11-18T00:05:20;102.78;;;25.75;;
54037;SDS011;39954;48.844;9.726;2023-11-18T00:06:25;110.78;;;25.70;;
54037;SDS011;39954;48.844;9.726;2023-11-18T00:07:31;93.07;;;24.63;;
54037;SDS011;39954;48.844;9.726;2023-11-18T00:08:34;113.80;;;27.88;;
54037;SDS011;39954;48.844;9.726;2023-11-18T00:09:40;122.65;;;28.08;;
54037;SDS011;39954;48.844;9.726;2023-11-18T00:10:44;115.43;;;27.80;;
54037;SDS011;39954;48.844;9.726;2023-11-18T00:11:50;103.85;;;25.42;;
54037;SDS011;39954;48.844;9.726;2023-11-18T00:12:54;118.78;;;28.27;;
54037;SDS011;39954;48.844;9.726;2023-11-18T00:13:59;96.63;;;27.75;;
54037;SDS011;39954;48.844;9.726;2023-11-18T00:15:03;107.25;;;27.45;;
54037;SDS011;39954;48.844;9.726;2023-11-18T00:16:10;137.20;;;30.90;;
54037;SDS011;39954;48.844;9.726;2023-11-18T00:17:17;97.25;;;27.92;;
54037;SDS011;39954;48.844;9.726;2023-11-18T00:18:24;129.15;;;27.75;;
54037;SDS011;39954;48.844;9.726;2023-11-18T00:19:27;120.43;;;28.55;;
54037;SDS011;39954;48.844;9.726;2023-11-18T00:20:35;128.38;;;29.35;;
54037;SDS011;39954;48.844;9.726;2023-11-18T00:21:39;149.30;;;30.50;;
54037;SDS011;39954;48.844;9.726;2023-11-18T00:22:46;146.15;;;30.00;;
54037;SDS011;39954;48.844;9.726;2023-11-18T00:23:49;108.80;;;28.63;;
54037;SDS011;39954;48.844;9.726;2023-11-18T00:24:55;127.85;;;29.80;;
54037;SDS011;39954;48.844;9.726;2023-11-18T00:25:58;123.78;;;28.60;;
54037;SDS011;39954;48.844;9.726;2023-11-18T00:27:04;123.97;;;27.55;;
54037;SDS011;39954;48.844;9.726;2023-11-18T00:28:08;117.10;;;28.60;;
54037;SDS011;39954;48.844;9.726;2023-11-18T00:29:14;102.38;;;27.92;;
54037;SDS011;39954;48.844;9.726;2023-11-18T00:30:17;106.40;;;27.75;;
54037;SDS011;39954;48.844;9.726;2023-11-18T00:31:23;94.60;;;27.08;;
54037;SDS011;39954;48.844;9.726;2023-11-18T00:32:27;94.90;;;27.95;;
54037;SDS011;39954;48.844;9.726;2023-11-18T00:33:34;103.18;;;28.20;;
54037;SDS011;39954;48.844;9.726;2023-11-18T00:34:37;119.60;;;30.77;;
54037;SDS011;39954;48.844;9.726;2023-11-18T00:35:47;110.90;;;29.45;;
54037;SDS011;39954;48.844;9.726;2023-11-18T00:36:50;91.35;;;26.88;;
54037;SDS011;39954;48.844;9.726;2023-11-18T00:37:56;102.75;;;27.50;;
54037;SDS011;39954;48.844;9.726;2023-11-18T00:38:59;99.55;;;27.60;;
54037;SDS011;39954;48.844;9.726;2023-11-18T00:40:06;104.97;;;29.15;;
54037;SDS011;39954;48.844;9.726;2023-11-18T00:41:10;102.90;;;28.92;;
54037;SDS011;39954;48.844;9.726;2023-11-18T00:42:17;94.82;;;28.52;;
54037;SDS011;39954;48.844;9.726;2023-11-18T00:43:20;95.95;;;28.33;;
54037;SDS011;39954;48.844;9.726;2023-11-18T00:44:27;100.57;;;29.20;;
54037;SDS011;39954;48.844;9.726;2023-11-18T00:45:30;102.90;;;31.42;;
54037;SDS011;39954;48.844;9.726;2023-11-18T00:46:36;133.73;;;31.65;;
54037;SDS011;39954;48.844;9.726;2023-11-18T00:47:40;135.77;;;33.20;;
54037;SDS011;39954;48.844;9.726;2023-11-18T00:48:46;129.38;;;31.83;;
54037;SDS011;39954;48.844;9.726;2023-11-18T00:49:52;116.03;;;31.45;;
54037;SDS011;39954;48.844;9.726;2023-11-18T00:50:59;127.65;;;32.35;;
54037;SDS011;39954;48.844;9.726;2023-11-18T00:52:06;162.68;;;35.28;;
54037;SDS011;39954;48.844;9.726;2023-11-18T00:53:10;143.52;;;31.98;;
54037;SDS011;39954;48.844;9.726;2023-11-18T00:54:16;134.80;;;32.95;;
54037;SDS011;39954;48.844;9.726;2023-11-18T00:55:19;147.02;;;33.70;;
54037;SDS011;39954;48.844;9.726;2023-11-18T00:56:22;142.90;;;35.00;;
54037;SDS011;39954;48.844;9.726;2023-11-18T00:57:32;145.15;;;32.05;;
54037;SDS011;39954;48.844;9.726;2023-11-18T00:58:35;159.27;;;34.35;;
54037;SDS011;39954;48.844;9.726;2023-11-18T00:59:42;145.30;;;33.63;;
54037;SDS011;39954;48.844;9.726;2023-11-18T01:00:46;145.65;;;34.22;;
54037;SDS011;39954;48.844;9.726;2023-11-18T01:01:51;222.35;;;38.85;;
54037;SDS011;39954;48.844;9.726;2023-11-18T01:02:55;134.82;;;34.63;;
54037;SDS011;39954;48.844;9.726;2023-11-18T01:04:01;123.72;;;33.25;;
54037;SDS011;39954;48.844;9.726;2023-11-18T01:05:04;156.13;;;34.17;;
54037;SDS011;39954;48.844;9.726;2023-11-18T01:06:12;128.05;;;33.85;;
54037;SDS011;39954;48.844;9.726;2023-11-18T01:07:18;265.25;;;43.38;;
54037;SDS011;39954;48.844;9.726;2023-11-18T01:08:22;163.90;;;35.88;;
54037;SDS011;39954;48.844;9.726;2023-11-18T01:09:28;229.68;;;35.35;;
54037;SDS011;39954;48.844;9.726;2023-11-18T01:10:31;171.18;;;34.88;;
54037;SDS011;39954;48.844;9.726;2023-11-18T01:11:38;180.48;;;34.65;;
54037;SDS011;39954;48.844;9.726;2023-11-18T01:13:01;209.63;;;39.35;;
54037;SDS011;39954;48.844;9.726;2023-11-18T01:14:08;146.88;;;34.53;;
54037;SDS011;39954;48.844;9.726;2023-11-18T01:15:11;148.10;;;33.78;;
54037;SDS011;39954;48.844;9.726;2023-11-18T01:16:17;145.85;;;35.05;;
54037;SDS011;39954;48.844;9.726;2023-11-18T01:17:21;266.67;;;37.85;;
54037;SDS011;39954;48.844;9.726;2023-11-18T01:18:30;147.63;;;35.25;;
54037;SDS011;39954;48.844;9.726;2023-11-18T01:19:33;158.57;;;35.35;;
54037;SDS011;39954;48.844;9.726;2023-11-18T01:20:39;180.93;;;36.38;;
54037;SDS011;39954;48.844;9.726;2023-11-18T01:21:45;172.43;;;35.78;;
54037;SDS011;39954;48.844;9.726;2023-11-18T01:22:51;156.77;;;36.90;;
54037;SDS011;39954;48.844;9.726;2023-11-18T01:23:54;132.30;;;35.45;;
54037;SDS011;39954;48.844;9.726;2023-11-18T01:25:00;138.73;;;36.28;;
54037;SDS011;39954;48.844;9.726;2023-11-18T01:26:04;137.93;;;34.80;;
54037;SDS011;39954;48.844;9.726;2023-11-18T01:27:10;131.60;;;35.03;;
54037;SDS011;39954;48.844;9.726;2023-11-18T01:28:13;126.13;;;34.35;;
54037;SDS011;39954;48.844;9.726;2023-11-18T01:29:19;147.73;;;35.70;;
54037;SDS011;39954;48.844;9.726;2023-11-18T01:30:24;126.47;;;35.25;;
54037;SDS011;39954;48.844;9.726;2023-11-18T01:31:30;117.80;;;34.35;;
54037;SDS011;39954;48.844;9.726;2023-11-18T01:32:50;150.82;;;35.70;;
54037;SDS011;39954;48.844;9.726;2023-11-18T01:33:57;117.82;;;35.38;;
54037;SDS011;39954;48.844;9.726;2023-11-18T01:35:00;134.35;;;36.30;;
54037;SDS011;39954;48.844;9.726;2023-11-18T01:36:04;126.70;;;34.58;;
54037;SDS011;39954;48.844;9.726;2023-11-18T01:37:14;127.13;;;34.50;;
54037;SDS011;39954;48.844;9.726;2023-11-18T01:38:17;113.55;;;34.15;;
54037;SDS011;39954;48.844;9.726;2023-11-18T01:39:23;128.68;;;36.28;;
54037;SDS011;39954;48.844;9.726;2023-11-18T01:40:28;150.95;;;36.78;;
54037;SDS011;39954;48.844;9.726;2023-11-18T01:41:34;138.13;;;35.95;;
54037;SDS011;39954;48.844;9.726;2023-11-18T01:42:38;137.55;;;34.20;;
54037;SDS011;39954;48.844;9.726;2023-11-18T01:43:45;168.82;;;37.38;;
54037;SDS011;39954;48.844;9.726;2023-11-18T01:44:49;174.90;;;37.55;;
54037;SDS011;39954;48.844;9.726;2023-11-18T01:45:55;142.40;;;36.47;;
54037;SDS011;39954;48.844;9.726;2023-11-18T01:46:59;143.85;;;35.72;;
54037;SDS011;39954;48.844;9.726;2023-11-18T01:48:08;114.97;;;33.88;;
54037;SDS011;39954;48.844;9.726;2023-11-18T01:49:11;133.75;;;33.72;;
54037;SDS011;39954;48.844;9.726;2023-11-18T01:50:20;137.57;;;35.17;;
54037;SDS011;39954;48.844;9.726;2023-11-18T01:51:23;120.57;;;33.35;;
54037;SDS011;39954;48.844;9.726;2023-11-18T01:52:32;114.30;;;32.65;;
54037;SDS011;39954;48.844;9.726;2023-11-18T01:53:36;167.55;;;35.90;;
54037;SDS011;39954;48.844;9.726;2023-11-18T01:54:43;158.07;;;35.58;;
54037;SDS011;39954;48.844;9.726;2023-11-18T01:55:47;133.60;;;35.58;;
54037;SDS011;39954;48.844;9.726;2023-11-18T01:56:53;139.95;;;34.67;;
54037;SDS011;39954;48.844;9.726;2023-11-18T01:57:57;128.93;;;34.15;;
54037;SDS011;39954;48.844;9.726;2023-11-18T01:59:10;132.50;;;36.00;;
54037;SDS011;39954;48.844;9.726;2023-11-18T02:00:20;112.47;;;33.40;;
54037;SDS011;39954;48.844;9.726;2023-11-18T02:01:26;136.35;;;35.03;;
54037;SDS011;39954;48.844;9.726;2023-11-18T02:02:34;144.93;;;36.55;;
54037;SDS011;39954;48.844;9.726;2023-11-18T02:03:40;165.65;;;36.50;;
54037;SDS011;39954;48.844;9.726;2023-11-18T02:04:45;174.23;;;37.20;;
54037;SDS011;39954;48.844;9.726;2023-11-18T02:05:51;152.43;;;35.15;;
54037;SDS011;39954;48.844;9.726;2023-11-18T02:06:54;175.38;;;37.90;;
54037;SDS011;39954;48.844;9.726;2023-11-18T02:08:01;130.00;;;33.83;;
54037;SDS011;39954;48.844;9.726;2023-11-18T02:09:09;125.82;;;33.40;;
54037;SDS011;39954;48.844;9.726;2023-11-18T02:10:12;155.95;;;34.95;;
54037;SDS011;39954;48.844;9.726;2023-11-18T02:11:22;145.20;;;35.58;;
54037;SDS011;39954;48.844;9.726;2023-11-18T02:12:33;116.55;;;32.47;;
54037;SDS011;39954;48.844;9.726;2023-11-18T02:13:46;132.07;;;33.58;;
54037;SDS011;39954;48.844;9.726;2023-11-18T02:14:51;146.63;;;35.25;;
54037;SDS011;39954;48.844;9.726;2023-11-18T02:15:59;117.75;;;33.05;;
54037;SDS011;39954;48.844;9.726;2023-11-18T02:17:07;111.75;;;31.63;;
54037;SDS011;39954;48.844;9.726;2023-11-18T02:18:17;121.00;;;33.97;;
54037;SDS011;39954;48.844;9.726;2023-11-18T02:19:23;132.98;;;33.38;;
54037;SDS011;39954;48.844;9.726;2023-11-18T02:20:30;145.15;;;33.88;;
54037;SDS011;39954;48.844;9.726;2023-11-18T02:21:34;134.82;;;35.97;;
54037;SDS011;39954;48.844;9.726;2023-11-18T02:22:40;144.60;;;34.55;;
54037;SDS011;39954;48.844;9.726;2023-11-18T02:23:51;165.63;;;35.00;;
54037;SDS011;39954;48.844;9.726;2023-11-18T02:24:54;133.50;;;33.47;;
54037;SDS011;39954;48.844;9.726;2023-11-18T02:26:03;120.32;;;32.83;;
54037;SDS011;39954;48.844;9.726;2023-11-18T02:27:08;119.80;;;33.08;;
54037;SDS011;39954;48.844;9.726;2023-11-18T02:28:16;121.65;;;32.60;;
54037;SDS011;39954;48.844;9.726;2023-11-18T02:29:21;127.55;;;34.03;;
54037;SDS011;39954;48.844;9.726;2023-11-18T02:30:28;110.97;;;32.35;;
54037;SDS011;39954;48.844;9.726;2023-11-18T02:31:33;110.03;;;30.60;;
54037;SDS011;39954;48.844;9.726;2023-11-18T02:32:42;129.50;;;33.17;;
54037;SDS011;39954;48.844;9.726;2023-11-18T02:33:52;129.80;;;33.88;;
54037;SDS011;39954;48.844;9.726;2023-11-18T02:35:08;169.30;;;35.80;;
54037;SDS011;39954;48.844;9.726;2023-11-18T02:36:14;124.70;;;33.58;;
54037;SDS011;39954;48.844;9.726;2023-11-18T02:37:23;130.52;;;33.28;;
54037;SDS011;39954;48.844;9.726;2023-11-18T02:38:35;108.10;;;31.17;;
54037;SDS011;39954;48.844;9.726;2023-11-18T02:39:48;169.10;;;35.70;;
54037;SDS011;39954;48.844;9.726;2023-11-18T02:40:59;107.70;;;30.73;;
54037;SDS011;39954;48.844;9.726;2023-11-18T02:42:11;114.72;;;31.27;;
54037;SDS011;39954;48.844;9.726;2023-11-18T02:43:18;105.00;;;30.75;;
54037;SDS011;39954;48.844;9.726;2023-11-18T02:44:22;124.95;;;33.20;;
54037;SDS011;39954;48.844;9.726;2023-11-18T02:45:29;97.90;;;31.13;;
54037;SDS011;39954;48.844;9.726;2023-11-18T02:46:34;117.10;;;31.48;;
54037;SDS011;39954;48.844;9.726;2023-11-18T02:47:41;122.03;;;32.65;;
54037;SDS011;39954;48.844;9.726;2023-11-18T02:48:46;138.30;;;34.17;;
54037;SDS011;39954;48.844;9.726;2023-11-18T02:49:56;174.65;;;36.30;;
54037;SDS011;39954;48.844;9.726;2023-11-18T02:51:07;151.13;;;35.22;;
54037;SDS011;39954;48.844;9.726;2023-11-18T02:52:14;126.88;;;32.47;;
54037;SDS011;39954;48.844;9.726;2023-11-18T02:53:17;193.40;;;36.70;;
54037;SDS011;39954;48.844;9.726;2023-11-18T02:54:23;143.90;;;33.35;;
54037;SDS011;39954;48.844;9.726;2023-11-18T02:55:28;143.88;;;35.17;;
54037;SDS011;39954;48.844;9.726;2023-11-18T02:56:36;119.95;;;33.42;;
54037;SDS011;39954;48.844;9.726;2023-11-18T02:57:40;127.68;;;33.88;;
54037;SDS011;39954;48.844;9.726;2023-11-18T02:58:46;139.98;;;34.20;;
54037;SDS011;39954;48.844;9.726;2023-11-18T02:59:50;140.20;;;35.17;;
54037;SDS011;39954;48.844;9.726;2023-11-18T03:00:56;139.32;;;34.20;;
54037;SDS011;39954;48.844;9.726;2023-11-18T03:02:02;111.70;;;32.25;;
54037;SDS011;39954;48.844;9.726;2023-11-18T03:03:08;106.60;;;31.98;;
54037;SDS011;39954;48.844;9.726;2023-11-18T03:04:11;177.10;;;38.28;;
54037;SDS011;39954;48.844;9.726;2023-11-18T03:05:17;113.30;;;32.42;;
54037;SDS011;39954;48.844;9.726;2023-11-18T03:06:21;121.30;;;33.03;;
54037;SDS011;39954;48.844;9.726;2023-11-18T03:07:27;211.05;;;38.58;;
54037;SDS011;39954;48.844;9.726;2023-11-18T03:08:31;110.25;;;32.03;;
54037;SDS011;39954;48.844;9.726;2023-11-18T03:09:37;105.43;;;30.63;;
54037;SDS011;39954;48.844;9.726;2023-11-18T03:10:42;128.88;;;30.45;;
54037;SDS011;39954;48.844;9.726;2023-11-18T03:11:51;140.55;;;33.08;;
54037;SDS011;39954;48.844;9.726;2023-11-18T03:12:57;147.40;;;32.75;;
54037;SDS011;39954;48.844;9.726;2023-11-18T03:14:03;134.55;;;32.05;;
54037;SDS011;39954;48.844;9.726;2023-11-18T03:15:10;157.82;;;32.67;;
54037;SDS011;39954;48.844;9.726;2023-11-18T03:16:18;161.77;;;32.95;;
54037;SDS011;39954;48.844;9.726;2023-11-18T03:17:22;142.38;;;31.13;;
54037;SDS011;39954;48.844;9.726;2023-11-18T03:18:28;131.10;;;29.10;;
54037;SDS011;39954;48.844;9.726;2023-11-18T03:19:32;104.22;;;27.63;;
54037;SDS011;39954;48.844;9.726;2023-11-18T03:20:39;120.35;;;29.10;;
54037;SDS011;39954;48.844;9.726;2023-11-18T03:21:42;100.75;;;27.23;;
54037;SDS011;39954;48.844;9.726;2023-11-18T03:22:49;104.03;;;27.90;;
54037;SDS011;39954;48.844;9.726;2023-11-18T03:23:53;143.88;;;29.90;;
54037;SDS011;39954;48.844;9.726;2023-11-18T03:25:00;121.07;;;28.38;;
54037;SDS011;39954;48.844;9.726;2023-11-18T03:26:03;101.88;;;27.13;;
54037;SDS011;39954;48.844;9.726;2023-11-18T03:27:14;100.82;;;28.27;;
54037;SDS011;39954;48.844;9.726;2023-11-18T03:28:18;116.47;;;28.63;;
54037;SDS011;39954;48.844;9.726;2023-11-18T03:29:25;100.47;;;27.30;;
54037;SDS011;39954;48.844;9.726;2023-11-18T03:30:29;164.20;;;30.92;;
54037;SDS011;39954;48.844;9.726;2023-11-18T03:31:35;111.65;;;29.35;;
54037;SDS011;39954;48.844;9.726;2023-11-18T03:32:38;101.05;;;29.92;;
54037;SDS011;39954;48.844;9.726;2023-11-18T03:33:45;179.10;;;34.22;;
54037;SDS011;39954;48.844;9.726;2023-11-18T03:34:49;126.57;;;30.30;;
54037;SDS011;39954;48.844;9.726;2023-11-18T03:35:55;133.10;;;30.80;;
54037;SDS011;39954;48.844;9.726;2023-11-18T03:36:58;168.18;;;34.38;;
54037;SDS011;39954;48.844;9.726;2023-11-18T03:38:04;117.25;;;30.58;;
54037;SDS011;39954;48.844;9.726;2023-11-18T03:39:08;130.75;;;30.88;;
54037;SDS011;39954;48.844;9.726;2023-11-18T03:40:15;199.05;;;36.95;;
54037;SDS011;39954;48.844;9.726;2023-11-18T03:41:18;133.30;;;30.98;;
54037;SDS011;39954;48.844;9.726;2023-11-18T03:42:28;147.38;;;30.80;;
54037;SDS011;39954;48.844;9.726;2023-11-18T03:43:31;198.75;;;35.30;;
54037;SDS011;39954;48.844;9.726;2023-11-18T03:44:38;163.98;;;33.38;;
54037;SDS011;39954;48.844;9.726;2023-11-18T03:45:42;185.63;;;33.70;;
54037;SDS011;39954;48.844;9.726;2023-11-18T03:46:48;291.35;;;39.67;;
54037;SDS011;39954;48.844;9.726;2023-11-18T03:47:51;262.38;;;36.67;;
54037;SDS011;39954;48.844;9.726;2023-11-18T03:48:58;384.55;;;39.90;;
54037;SDS011;39954;48.844;9.726;2023-11-18T03:50:03;354.25;;;39.10;;
54037;SDS011;39954;48.844;9.726;2023-11-18T03:51:10;246.52;;;36.05;;
54037;SDS011;39954;48.844;9.726;2023-11-18T03:52:14;386.90;;;40.20;;
54037;SDS011;39954;48.844;9.726;2023-11-18T03:53:20;293.67;;;39.38;;
54037;SDS011;39954;48.844;9.726;2023-11-18T03:54:26;320.02;;;40.08;;
54037;SDS011;39954;48.844;9.726;2023-11-18T03:55:32;435.40;;;38.78;;
54037;SDS011;39954;48.844;9.726;2023-11-18T03:56:36;283.23;;;37.72;;
54037;SDS011;39954;48.844;9.726;2023-11-18T03:57:44;247.30;;;36.10;;
54037;SDS011;39954;48.844;9.726;2023-11-18T03:58:48;320.90;;;38.33;;
54037;SDS011;39954;48.844;9.726;2023-11-18T03:59:54;434.85;;;42.83;;
54037;SDS011;39954;48.844;9.726;2023-11-18T04:00:57;474.33;;;43.00;;
54037;SDS011;39954;48.844;9.726;2023-11-18T04:02:03;325.95;;;40.45;;
54037;SDS011;39954;48.844;9.726;2023-11-18T04:03:07;206.98;;;34.38;;
54037;SDS011;39954;48.844;9.726;2023-11-18T04:04:14;304.52;;;41.03;;
54037;SDS011;39954;48.844;9.726;2023-11-18T04:05:19;233.43;;;35.72;;
54037;SDS011;39954;48.844;9.726;2023-11-18T04:06:22;262.05;;;38.35;;
54037;SDS011;39954;48.844;9.726;2023-11-18T04:07:29;317.30;;;42.47;;
54037;SDS011;39954;48.844;9.726;2023-11-18T04:08:32;300.23;;;39.78;;
54037;SDS011;39954;48.844;9.726;2023-11-18T04:09:39;274.25;;;40.97;;
54037;SDS011;39954;48.844;9.726;2023-11-18T04:10:44;288.23;;;40.20;;
54037;SDS011;39954;48.844;9.726;2023-11-18T04:11:47;290.50;;;43.00;;
54037;SDS011;39954;48.844;9.726;2023-11-18T04:12:56;449.75;;;45.97;;
54037;SDS011;39954;48.844;9.726;2023-11-18T04:13:59;361.42;;;46.58;;
54037;SDS011;39954;48.844;9.726;2023-11-18T04:15:06;245.65;;;40.80;;
54037;SDS011;39954;48.844;9.726;2023-11-18T04:16:10;236.60;;;42.42;;
54037;SDS011;39954;48.844;9.726;2023-11-18T04:17:17;240.77;;;43.85;;
54037;SDS011;39954;48.844;9.726;2023-11-18T04:18:21;216.70;;;39.78;;
54037;SDS011;39954;48.844;9.726;2023-11-18T04:19:27;205.40;;;40.88;;
54037;SDS011;39954;48.844;9.726;2023-11-18T04:20:30;300.00;;;48.20;;
54037;SDS011;39954;48.844;9.726;2023-11-18T04:21:36;371.75;;;46.10;;
54037;SDS011;39954;48.844;9.726;2023-11-18T04:22:40;548.63;;;50.85;;
54037;SDS011;39954;48.844;9.726;2023-11-18T04:23:47;581.58;;;53.15;;
54037;SDS011;39954;48.844;9.726;2023-11-18T04:24:50;540.72;;;50.13;;
54037;SDS011;39954;48.844;9.726;2023-11-18T04:25:57;586.67;;;52.17;;
54037;SDS011;39954;48.844;9.726;2023-11-18T04:27:00;481.55;;;51.38;;
54037;SDS011;39954;48.844;9.726;2023-11-18T04:28:09;705.90;;;52.95;;
54037;SDS011;39954;48.844;9.726;2023-11-18T04:29:13;1165.15;;;69.85;;
54037;SDS011;39954;48.844;9.726;2023-11-18T04:30:18;664.58;;;55.90;;
54037;SDS011;39954;48.844;9.726;2023-11-18T04:31:22;777.95;;;56.05;;
54037;SDS011;39954;48.844;9.726;2023-11-18T04:32:28;560.45;;;48.22;;
54037;SDS011;39954;48.844;9.726;2023-11-18T04:33:35;783.97;;;59.75;;
54037;SDS011;39954;48.844;9.726;2023-11-18T04:34:42;947.30;;;66.32;;
54037;SDS011;39954;48.844;9.726;2023-11-18T04:35:45;842.35;;;60.80;;
54037;SDS011;39954;48.844;9.726;2023-11-18T04:36:52;626.25;;;54.53;;
54037;SDS011;39954;48.844;9.726;2023-11-18T04:37:57;684.38;;;55.95;;
54037;SDS011;39954;48.844;9.726;2023-11-18T04:39:01;677.05;;;57.65;;
54037;SDS011;39954;48.844;9.726;2023-11-18T04:40:08;946.85;;;66.40;;
54037;SDS011;39954;48.844;9.726;2023-11-18T04:41:11;1138.07;;;70.82;;
54037;SDS011;39954;48.844;9.726;2023-11-18T04:42:18;1127.15;;;68.68;;
54037;SDS011;39954;48.844;9.726;2023-11-18T04:43:24;1210.80;;;70.20;;
54037;SDS011;39954;48.844;9.726;2023-11-18T04:44:45;928.60;;;58.72;;
54037;SDS011;39954;48.844;9.726;2023-11-18T04:45:48;1015.47;;;64.43;;
54037;SDS011;39954;48.844;9.726;2023-11-18T04:46:54;765.50;;;51.30;;
54037;SDS011;39954;48.844;9.726;2023-11-18T04:47:58;697.42;;;53.65;;
54037;SDS011;39954;48.844;9.726;2023-11-18T04:49:06;805.33;;;59.60;;
54037;SDS011;39954;48.844;9.726;2023-11-18T04:50:10;771.33;;;56.22;;
54037;SDS011;39954;48.844;9.726;2023-11-18T04:51:17;1257.72;;;67.93;;
54037;SDS011;39954;48.844;9.726;2023-11-18T04:52:20;1136.43;;;69.30;;
54037;SDS011;39954;48.844;9.726;2023-11-18T04:53:26;623.70;;;47.85;;
54037;SDS011;39954;48.844;9.726;2023-11-18T04:54:29;632.38;;;51.53;;
54037;SDS011;39954;48.844;9.726;2023-11-18T04:55:36;813.45;;;56.65;;
54037;SDS011;39954;48.844;9.726;2023-11-18T04:56:39;767.38;;;53.72;;
54037;SDS011;39954;48.844;9.726;2023-11-18T04:57:46;817.50;;;52.45;;
54037;SDS011;39954;48.844;9.726;2023-11-18T04:58:52;996.90;;;57.92;;
54037;SDS011;39954;48.844;9.726;2023-11-18T04:59:58;1384.85;;;72.88;;
54037;SDS011;39954;48.844;9.726;2023-11-18T05:01:03;1177.60;;;65.43;;
54037;SDS011;39954;48.844;9.726;2023-11-18T05:02:11;1231.47;;;63.63;;
54037;SDS011;39954;48.844;9.726;2023-11-18T05:03:15;1452.47;;;74.25;;
54037;SDS011;39954;48.844;9.726;2023-11-18T05:04:22;1083.95;;;62.67;;
54037;SDS011;39954;48.844;9.726;2023-11-18T05:05:26;1075.90;;;64.70;;
54037;SDS011;39954;48.844;9.726;2023-11-18T05:06:31;812.40;;;54.53;;
54037;SDS011;39954;48.844;9.726;2023-11-18T05:07:35;1373.70;;;81.95;;
54037;SDS011;39954;48.844;9.726;2023-11-18T05:08:41;1097.55;;;64.85;;
54037;SDS011;39954;48.844;9.726;2023-11-18T05:09:44;1086.75;;;64.03;;
54037;SDS011;39954;48.844;9.726;2023-11-18T05:10:50;1423.93;;;71.10;;
54037;SDS011;39954;48.844;9.726;2023-11-18T05:11:54;1246.85;;;68.53;;
54037;SDS011;39954;48.844;9.726;2023-11-18T05:13:00;1157.57;;;70.80;;
54037;SDS011;39954;48.844;9.726;2023-11-18T05:14:07;956.10;;;63.33;;
54037;SDS011;39954;48.844;9.726;2023-11-18T05:15:13;649.60;;;46.63;;
54037;SDS011;39954;48.844;9.726;2023-11-18T05:16:17;846.15;;;55.70;;
54037;SDS011;39954;48.844;9.726;2023-11-18T05:17:23;1053.10;;;67.85;;
54037;SDS011;39954;48.844;9.726;2023-11-18T05:18:28;1012.45;;;62.92;;
54037;SDS011;39954;48.844;9.726;2023-11-18T05:19:38;1346.60;;;82.30;;
54037;SDS011;39954;48.844;9.726;2023-11-18T05:20:44;1343.40;;;78.63;;
54037;SDS011;39954;48.844;9.726;2023-11-18T05:21:51;1685.45;;;93.72;;
54037;SDS011;39954;48.844;9.726;2023-11-18T05:22:59;1311.60;;;77.80;;
54037;SDS011;39954;48.844;9.726;2023-11-18T05:24:05;867.58;;;62.70;;
54037;SDS011;39954;48.844;9.726;2023-11-18T05:25:09;830.63;;;60.58;;
54037;SDS011;39954;48.844;9.726;2023-11-18T05:26:15;683.45;;;52.55;;
54037;SDS011;39954;48.844;9.726;2023-11-18T05:27:20;748.67;;;56.00;;
54037;SDS011;39954;48.844;9.726;2023-11-18T05:28:27;403.90;;;42.35;;
54037;SDS011;39954;48.844;9.726;2023-11-18T05:29:37;790.83;;;56.80;;
54037;SDS011;39954;48.844;9.726;2023-11-18T05:30:43;719.88;;;54.70;;
54037;SDS011;39954;48.844;9.726;2023-11-18T05:31:46;706.85;;;54.10;;
54037;SDS011;39954;48.844;9.726;2023-11-18T05:32:52;612.20;;;50.78;;
54037;SDS011;39954;48.844;9.726;2023-11-18T05:33:56;663.20;;;54.55;;
54037;SDS011;39954;48.844;9.726;2023-11-18T05:35:04;739.88;;;57.50;;
54037;SDS011;39954;48.844;9.726;2023-11-18T05:36:08;621.17;;;54.22;;
54037;SDS011;39954;48.844;9.726;2023-11-18T05:37:15;549.45;;;49.80;;
54037;SDS011;39954;48.844;9.726;2023-11-18T05:38:20;455.38;;;43.10;;
54037;SDS011;39954;48.844;9.726;2023-11-18T05:39:29;418.52;;;43.20;;
54037;SDS011;39954;48.844;9.726;2023-11-18T05:40:33;720.20;;;49.40;;
54037;SDS011;39954;48.844;9.726;2023-11-18T05:41:41;657.88;;;54.65;;
54037;SDS011;39954;48.844;9.726;2023-11-18T05:42:49;828.90;;;55.85;;
54037;SDS011;39954;48.844;9.726;2023-11-18T05:43:55;443.05;;;43.08;;
54037;SDS011;39954;48.844;9.726;2023-11-18T05:45:02;359.15;;;39.78;;
54037;SDS011;39954;48.844;9.726;2023-11-18T05:47:23;439.13;;;40.40;;
54037;SDS011;39954;48.844;9.726;2023-11-18T05:48:29;267.65;;;35.75;;
54037;SDS011;39954;48.844;9.726;2023-11-18T05:49:34;167.80;;;32.55;;
54037;SDS011;39954;48.844;9.726;2023-11-18T05:50:41;196.23;;;36.22;;
54037;SDS011;39954;48.844;9.726;2023-11-18T05:51:48;192.65;;;36.72;;
54037;SDS011;39954;48.844;9.726;2023-11-18T05:52:53;213.07;;;39.75;;
54037;SDS011;39954;48.844;9.726;2023-11-18T05:53:57;243.25;;;39.03;;
54037;SDS011;39954;48.844;9.726;2023-11-18T05:55:03;165.18;;;32.65;;
54037;SDS011;39954;48.844;9.726;2023-11-18T05:56:08;196.45;;;33.63;;
54037;SDS011;39954;48.844;9.726;2023-11-18T05:57:11;197.63;;;35.70;;
54037;SDS011;39954;48.844;9.726;2023-11-18T05:58:17;158.02;;;31.63;;
54037;SDS011;39954;48.844;9.726;2023-11-18T05:59:20;175.82;;;33.30;;
54037;SDS011;39954;48.844;9.726;2023-11-18T06:00:29;164.35;;;31.92;;
54037;SDS011;39954;48.844;9.726;2023-11-18T06:01:41;147.23;;;30.98;;
54037;SDS011;39954;48.844;9.726;2023-11-18T06:02:49;150.43;;;30.25;;
54037;SDS011;39954;48.844;9.726;2023-11-18T06:03:56;153.25;;;31.55;;
54037;SDS011;39954;48.844;9.726;2023-11-18T06:05:03;158.30;;;31.08;;
54037;SDS011;39954;48.844;9.726;2023-11-18T06:06:07;136.40;;;29.60;;
54037;SDS011;39954;48.844;9.726;2023-11-18T06:07:14;131.93;;;28.08;;
54037;SDS011;39954;48.844;9.726;2023-11-18T06:08:21;137.23;;;28.17;;
54037;SDS011;39954;48.844;9.726;2023-11-18T06:09:28;135.50;;;27.77;;
54037;SDS011;39954;48.844;9.726;2023-11-18T06:10:32;116.80;;;25.63;;
54037;SDS011;39954;48.844;9.726;2023-11-18T06:11:39;135.82;;;29.40;;
54037;SDS011;39954;48.844;9.726;2023-11-18T06:12:43;133.48;;;29.08;;
54037;SDS011;39954;48.844;9.726;2023-11-18T06:13:49;150.88;;;29.23;;
54037;SDS011;39954;48.844;9.726;2023-11-18T06:14:53;154.38;;;30.95;;
54037;SDS011;39954;48.844;9.726;2023-11-18T06:16:02;173.63;;;30.83;;
54037;SDS011;39954;48.844;9.726;2023-11-18T06:17:08;161.40;;;29.42;;
54037;SDS011;39954;48.844;9.726;2023-11-18T06:18:18;141.07;;;30.08;;
54037;SDS011;39954;48.844;9.726;2023-11-18T06:19:21;135.02;;;28.38;;
54037;SDS011;39954;48.844;9.726;2023-11-18T06:20:27;151.98;;;30.95;;
54037;SDS011;39954;48.844;9.726;2023-11-18T06:21:30;117.55;;;27.88;;